createdAt,value
2023-03-26T00:00:54.271Z,49.90
2023-03-26T00:03:57.952Z,49.41
2023-03-26T00:07:00.160Z,49.43
2023-03-26T00:10:02.149Z,49.25
2023-03-26T00:13:04.653Z,49.08
2023-03-26T00:16:06.880Z,49.67
2023-03-26T00:19:09.108Z,48.91
2023-03-26T00:22:13.625Z,48.47
2023-03-26T00:25:15.975Z,48.96
2023-03-26T00:28:21.489Z,49.37
2023-03-26T00:31:23.418Z,48.79
2023-03-26T00:34:26.659Z,48.17
2023-03-26T00:37:28.588Z,49.58
2023-03-26T00:40:32.103Z,48.10
2023-03-26T00:43:34.816Z,48.90
2023-03-26T00:46:37.095Z,48.50
2023-03-26T00:49:39.540Z,48.58
2023-03-26T00:52:42.927Z,47.76
2023-03-26T00:55:45.803Z,46.58
2023-03-26T00:58:50.255Z,48.50
2023-03-26T01:01:55.023Z,46.86
2023-03-26T01:04:57.968Z,47.46
2023-03-26T01:08:15.078Z,46.76
2023-03-26T01:11:16.937Z,47.96
2023-03-26T01:14:20.466Z,48.03
2023-03-26T01:17:22.466Z,48.72
2023-03-26T01:20:26.919Z,46.51
2023-03-26T01:23:30.880Z,47.81
2023-03-26T01:26:36.514Z,47.35
2023-03-26T01:29:39.345Z,48.79
2023-03-26T01:32:47.583Z,48.63
2023-03-26T01:35:52.640Z,47.63
2023-03-26T01:39:27.380Z,47.30
2023-03-26T01:42:47.982Z,47.21
2023-03-26T01:45:49.920Z,45.86
2023-03-26T01:48:52.070Z,47.10
2023-03-26T01:51:55.641Z,47.51
2023-03-26T01:54:57.697Z,47.47
2023-03-26T01:58:09.208Z,47.21
2023-03-26T02:01:12.881Z,47.63
2023-03-26T02:04:37.865Z,48.81
2023-03-26T02:07:39.675Z,48.74
2023-03-26T02:10:42.524Z,47.71
2023-03-26T02:13:45.054Z,49.96
2023-03-26T02:16:47.956Z,48.94
2023-03-26T02:19:50.128Z,48.54
2023-03-26T02:22:52.032Z,48.64
2023-03-26T02:25:54.076Z,50.03
2023-03-26T02:28:56.826Z,50.06
2023-03-26T02:31:58.766Z,49.95
2023-03-26T02:35:00.907Z,50.52
2023-03-26T02:38:02.895Z,50.40
2023-03-26T02:41:05.005Z,50.53
2023-03-26T02:44:06.955Z,50.15
2023-03-26T02:47:08.830Z,51.65
2023-03-26T02:50:12.035Z,50.96
2023-03-26T02:53:14.030Z,51.55
2023-03-26T02:56:15.978Z,51.82
2023-03-26T02:59:17.915Z,50.21
2023-03-26T03:02:20.289Z,50.75
2023-03-26T03:05:26.725Z,50.09
2023-03-26T03:08:29.328Z,49.67
2023-03-26T03:11:31.459Z,49.04
2023-03-26T03:14:33.305Z,50.39
2023-03-26T03:17:35.493Z,50.94
2023-03-26T03:20:37.825Z,48.54
2023-03-26T03:23:39.675Z,48.59
2023-03-26T03:26:42.482Z,49.00
2023-03-26T03:29:44.387Z,47.68
2023-03-26T03:32:46.249Z,46.05
2023-03-26T03:35:49.637Z,46.58
2023-03-26T03:38:51.588Z,49.25
2023-03-26T03:41:53.817Z,46.11
2023-03-26T03:44:55.844Z,45.81
2023-03-26T03:47:57.693Z,45.73
2023-03-26T03:50:59.560Z,47.28
2023-03-26T03:54:01.478Z,46.65
2023-03-26T03:57:03.565Z,49.91
2023-03-26T04:00:09.002Z,48.96
2023-03-26T04:03:14.407Z,45.81
2023-03-26T04:06:19.005Z,44.80
2023-03-26T04:09:21.097Z,44.81
2023-03-26T04:12:23.046Z,44.87
2023-03-26T04:15:24.915Z,45.12
2023-03-26T04:18:27.941Z,47.79
2023-03-26T04:21:33.945Z,46.63
2023-03-26T04:24:40.258Z,47.94
2023-03-26T04:27:43.429Z,49.79
2023-03-26T04:30:45.348Z,46.90
2023-03-26T04:33:47.277Z,49.78
2023-03-26T04:36:49.117Z,49.21
2023-03-26T04:39:50.992Z,49.34
2023-03-26T04:42:54.702Z,49.48
2023-03-26T04:45:56.835Z,48.30
2023-03-26T04:48:59.032Z,47.17
2023-03-26T04:52:00.929Z,48.32
2023-03-26T04:55:02.851Z,49.08
2023-03-26T04:58:05.617Z,50.34
2023-03-26T05:01:11.188Z,49.54
2023-03-26T05:04:13.644Z,48.98
2023-03-26T05:07:25.427Z,49.80
2023-03-26T05:10:27.325Z,49.71
2023-03-26T05:13:29.192Z,50.71
2023-03-26T05:16:31.922Z,48.84
2023-03-26T05:19:33.873Z,49.73
2023-03-26T05:22:38.130Z,49.39
2023-03-26T05:25:40.477Z,48.91
2023-03-26T05:28:42.346Z,48.61
2023-03-26T05:31:44.451Z,48.04
2023-03-26T05:34:46.268Z,46.85
2023-03-26T05:37:49.735Z,45.45
2023-03-26T05:40:51.609Z,42.61
2023-03-26T05:43:53.558Z,39.50
2023-03-26T05:46:55.406Z,38.60
2023-03-26T05:49:57.231Z,38.96
2023-03-26T05:52:59.089Z,37.45
2023-03-26T05:56:02.128Z,35.61
2023-03-26T05:59:04.030Z,35.43
2023-03-26T06:02:06.436Z,33.32
2023-03-26T06:05:09.888Z,31.12
2023-03-26T06:08:11.933Z,34.49
2023-03-26T06:11:13.847Z,33.75
2023-03-26T06:14:15.855Z,32.20
2023-03-26T06:17:18.036Z,32.54
2023-03-26T06:20:20.026Z,34.56
2023-03-26T06:23:23.259Z,32.03
2023-03-26T06:26:25.853Z,30.28
2023-03-26T06:29:27.764Z,31.04
2023-03-26T06:32:29.948Z,28.52
2023-03-26T06:35:32.162Z,28.35
2023-03-26T06:38:34.009Z,28.86
2023-03-26T06:41:35.952Z,29.22
2023-03-26T06:44:37.804Z,27.40
2023-03-26T06:47:39.628Z,26.67
2023-03-26T06:50:41.525Z,28.00
2023-03-26T06:53:43.461Z,30.67
2023-03-26T06:56:45.444Z,29.78
2023-03-26T06:59:47.392Z,31.57
2023-03-26T07:02:49.278Z,34.40
2023-03-26T07:05:51.273Z,32.27
2023-03-26T07:08:55.454Z,32.01
2023-03-26T07:11:57.520Z,32.43
2023-03-26T07:15:00.407Z,31.54
2023-03-26T07:18:02.446Z,30.84
2023-03-26T07:21:04.596Z,30.15
2023-03-26T07:24:06.777Z,28.14
2023-03-26T07:27:29.083Z,29.27
2023-03-26T07:30:46.306Z,28.31
2023-03-26T07:33:57.606Z,29.08
2023-03-26T07:37:02.346Z,28.66
2023-03-26T07:40:10.358Z,29.12
2023-03-26T07:43:19.021Z,26.32
2023-03-26T07:46:24.033Z,24.98
2023-03-26T07:49:27.362Z,26.94
2023-03-26T07:52:29.428Z,25.45
2023-03-26T07:55:31.605Z,24.47
2023-03-26T07:58:42.621Z,26.24
2023-03-26T08:02:14.193Z,27.79
2023-03-26T08:05:20.881Z,24.08
2023-03-26T08:08:43.533Z,24.55
2023-03-26T08:11:48.254Z,26.62
2023-03-26T08:14:53.225Z,29.69
2023-03-26T08:17:55.093Z,31.02
2023-03-26T08:21:01.243Z,29.64
2023-03-26T08:24:21.071Z,31.80
2023-03-26T08:27:23.683Z,32.04
2023-03-26T08:30:26.164Z,30.79
2023-03-26T08:33:28.120Z,33.46
2023-03-26T08:36:30.095Z,33.11
2023-03-26T08:39:32.271Z,32.46
2023-03-26T08:42:36.817Z,32.93
2023-03-26T08:45:57.124Z,33.21
2023-03-26T08:49:17.908Z,33.92
2023-03-26T08:52:24.629Z,34.09
2023-03-26T08:55:41.858Z,32.92
2023-03-26T08:59:01.951Z,33.41
2023-03-26T09:02:06.830Z,33.05
2023-03-26T09:05:19.528Z,32.64
2023-03-26T09:08:54.096Z,32.14
2023-03-26T09:11:56.474Z,30.88
2023-03-26T09:14:58.404Z,28.64
2023-03-26T09:18:06.642Z,29.36
2023-03-26T09:21:14.875Z,29.03
2023-03-26T09:24:27.832Z,27.33
2023-03-26T09:27:29.873Z,26.91
2023-03-26T09:30:31.768Z,27.45
2023-03-26T09:33:53.970Z,28.01
2023-03-26T09:36:57.220Z,29.30
2023-03-26T09:40:14.309Z,29.54
2023-03-26T09:43:16.436Z,29.45
2023-03-26T09:46:21.192Z,28.00
2023-03-26T09:49:31.889Z,27.03
2023-03-26T09:52:36.766Z,26.49
2023-03-26T09:55:43.347Z,26.11
2023-03-26T09:58:48.366Z,24.05
2023-03-26T10:01:56.519Z,22.23
2023-03-26T10:05:20.192Z,21.21
2023-03-26T10:08:33.831Z,21.19
2023-03-26T10:11:38.825Z,20.78
2023-03-26T10:14:40.657Z,21.36
2023-03-26T10:17:42.708Z,20.68
2023-03-26T10:20:44.580Z,22.64
2023-03-26T10:23:57.004Z,23.40
2023-03-26T10:27:10.788Z,25.54
2023-03-26T10:30:25.898Z,25.54
2023-03-26T10:33:27.739Z,27.03
2023-03-26T10:36:35.045Z,29.89
2023-03-26T10:39:55.986Z,34.93
2023-03-26T10:43:20.384Z,37.07
2023-03-26T10:46:29.775Z,41.58
2023-03-26T10:49:34.955Z,40.26
2023-03-26T10:52:36.853Z,38.35
2023-03-26T10:55:39.765Z,34.42
2023-03-26T10:58:48.462Z,31.01
2023-03-26T11:01:51.892Z,30.05
2023-03-26T11:04:53.870Z,31.55
2023-03-26T11:08:16.096Z,29.45
2023-03-26T11:11:17.920Z,29.37
2023-03-26T11:14:38.002Z,29.84
2023-03-26T11:17:55.592Z,31.15
2023-03-26T11:21:19.125Z,34.36
2023-03-26T11:24:22.240Z,34.12
2023-03-26T11:27:53.709Z,34.48
2023-03-26T11:30:59.449Z,32.76
2023-03-26T11:34:05.759Z,31.71
2023-03-26T11:37:12.569Z,32.52
2023-03-26T11:40:15.598Z,33.55
2023-03-26T11:43:19.044Z,32.75
2023-03-26T11:46:22.451Z,32.38
2023-03-26T11:49:24.444Z,30.53
2023-03-26T11:52:26.843Z,28.22
2023-03-26T11:55:28.789Z,26.77
2023-03-26T11:58:33.982Z,23.71
2023-03-26T12:01:52.015Z,24.58
2023-03-26T12:04:55.500Z,22.80
2023-03-26T12:08:01.162Z,20.90
2023-03-26T12:11:04.551Z,19.58
2023-03-26T12:14:06.506Z,22.91
2023-03-26T12:17:11.680Z,23.63
2023-03-26T12:20:39.656Z,26.36
2023-03-26T12:23:44.370Z,28.70
2023-03-26T12:26:46.434Z,23.44
2023-03-26T12:30:07.260Z,24.90
2023-03-26T12:33:16.431Z,28.18
2023-03-26T12:36:24.665Z,25.73
2023-03-26T12:40:06.738Z,21.02
2023-03-26T12:44:46.607Z,20.90
2023-03-26T12:47:58.926Z,18.90
2023-03-26T12:49:49.673Z,19.05
2023-03-26T12:53:02.456Z,19.12
2023-03-26T12:56:10.348Z,19.19
2023-03-26T12:59:24.268Z,20.90
2023-03-26T13:02:44.751Z,22.19
2023-03-26T13:06:02.846Z,18.53
2023-03-26T13:09:07.948Z,19.63
2023-03-26T13:12:28.546Z,20.63
2023-03-26T13:15:37.563Z,20.92
2023-03-26T13:18:45.668Z,21.86
2023-03-26T13:22:00.404Z,19.57
2023-03-26T13:25:07.703Z,18.19
2023-03-26T13:28:18.654Z,19.99
2023-03-26T13:31:32.742Z,19.36
2023-03-26T13:34:48.291Z,21.05
2023-03-26T13:38:08.548Z,21.86
2023-03-26T13:41:20.400Z,24.00
2023-03-26T13:44:25.363Z,23.10
2023-03-26T13:47:28.715Z,23.76
2023-03-26T13:50:31.065Z,22.73
2023-03-26T13:53:34.990Z,23.64
2023-03-26T13:56:39.726Z,23.49
2023-03-26T13:59:45.789Z,23.92
2023-03-26T14:02:56.360Z,24.16
2023-03-26T14:05:59.614Z,24.45
2023-03-26T14:09:10.970Z,24.65
2023-03-26T14:12:24.849Z,24.76
2023-03-26T14:15:44.080Z,24.38
2023-03-26T14:18:55.281Z,23.97
2023-03-26T14:22:13.991Z,23.55
2023-03-26T14:25:25.353Z,23.64
2023-03-26T14:28:47.298Z,24.27
2023-03-26T14:32:08.231Z,24.37
2023-03-26T14:35:16.594Z,24.82
2023-03-26T14:38:18.747Z,24.24
2023-03-26T14:41:43.926Z,23.28
2023-03-26T14:44:48.928Z,23.51
2023-03-26T14:47:51.482Z,23.78
2023-03-26T14:50:54.562Z,23.98
2023-03-26T14:53:59.272Z,22.59
2023-03-26T14:57:19.882Z,22.21
2023-03-26T15:00:40.782Z,22.49
2023-03-26T15:04:01.386Z,22.39
2023-03-26T15:07:22.284Z,22.36
2023-03-26T15:10:24.063Z,22.28
2023-03-26T15:13:42.103Z,22.25
2023-03-26T15:16:47.084Z,22.58
2023-03-26T15:19:51.798Z,23.02
2023-03-26T15:23:12.560Z,23.15
2023-03-26T15:26:41.714Z,23.49
2023-03-26T15:29:46.557Z,23.75
2023-03-26T15:32:57.222Z,24.09
2023-03-26T15:36:05.363Z,24.27
2023-03-26T15:39:16.361Z,24.66
2023-03-26T15:42:30.793Z,25.03
2023-03-26T15:45:32.682Z,25.07
2023-03-26T15:48:45.191Z,24.88
2023-03-26T15:51:53.157Z,25.33
2023-03-26T15:55:31.447Z,25.50
2023-03-26T15:58:51.975Z,26.55
2023-03-26T16:02:11.214Z,25.66
2023-03-26T16:05:32.241Z,26.64
2023-03-26T16:08:38.836Z,26.41
2023-03-26T16:11:54.876Z,26.46
2023-03-26T16:15:07.418Z,26.72
2023-03-26T16:18:10.265Z,26.79
2023-03-26T16:21:32.047Z,27.09
2023-03-26T16:24:42.416Z,28.05
2023-03-26T16:27:45.309Z,28.51
2023-03-26T16:31:00.372Z,28.36
2023-03-26T16:34:05.879Z,28.78
2023-03-26T16:37:26.720Z,29.18
2023-03-26T16:40:32.549Z,28.86
2023-03-26T16:43:39.679Z,27.93
2023-03-26T16:46:41.573Z,28.07
2023-03-26T16:50:12.865Z,27.72
2023-03-26T16:53:17.971Z,27.57
2023-03-26T16:56:31.965Z,28.36
2023-03-26T16:59:40.181Z,27.89
2023-03-26T17:02:48.120Z,27.94
2023-03-26T17:05:56.885Z,28.48
2023-03-26T17:09:09.349Z,29.04
2023-03-26T17:12:21.645Z,28.98
2023-03-26T17:15:29.880Z,29.64
2023-03-26T17:19:07.483Z,29.71
2023-03-26T17:22:11.581Z,29.83
2023-03-26T17:25:43.015Z,29.96
2023-03-26T17:29:03.580Z,30.18
2023-03-26T17:32:15.498Z,31.46
2023-03-26T17:35:17.435Z,30.24
2023-03-26T17:38:22.677Z,30.86
2023-03-26T17:41:43.510Z,30.06
2023-03-26T17:44:55.666Z,30.25
2023-03-26T17:48:02.417Z,29.85
2023-03-26T17:51:06.649Z,30.23
2023-03-26T17:54:28.880Z,30.65
2023-03-26T17:57:40.264Z,30.34
2023-03-26T18:00:42.798Z,30.32
2023-03-26T18:03:49.684Z,30.51
2023-03-26T18:06:55.724Z,30.08
2023-03-26T18:10:13.018Z,29.81
2023-03-26T18:13:21.103Z,30.09
2023-03-26T18:16:29.170Z,30.12
2023-03-26T18:19:32.102Z,30.67
2023-03-26T18:22:34.142Z,30.33
2023-03-26T18:25:35.983Z,30.63
2023-03-26T18:28:41.763Z,30.08
2023-03-26T18:31:43.903Z,30.01
2023-03-26T18:34:50.209Z,30.28
2023-03-26T18:37:53.434Z,30.53
2023-03-26T18:40:55.522Z,30.88
2023-03-26T18:44:01.435Z,30.40
2023-03-26T18:47:07.160Z,32.73
2023-03-26T18:50:13.995Z,32.39
2023-03-26T18:53:17.131Z,30.35
2023-03-26T18:56:39.508Z,30.50
2023-03-26T18:59:43.828Z,30.46
2023-03-26T19:02:46.637Z,30.92
2023-03-26T19:05:48.586Z,30.71
2023-03-26T19:08:50.578Z,30.89
2023-03-26T19:12:16.126Z,30.47
2023-03-26T19:15:18.031Z,30.58
2023-03-26T19:18:21.071Z,30.77
2023-03-26T19:21:23.464Z,32.86
2023-03-26T19:24:25.670Z,32.60
2023-03-26T19:27:27.540Z,32.89
2023-03-26T19:30:30.894Z,32.60
2023-03-26T19:33:34.015Z,33.14
2023-03-26T19:36:37.048Z,32.90
2023-03-26T19:40:01.584Z,31.49
2023-03-26T19:43:04.523Z,32.37
2023-03-26T19:46:07.401Z,32.68
2023-03-26T19:49:22.303Z,35.55
2023-03-26T19:52:34.284Z,35.77
2023-03-26T19:55:36.413Z,32.74
2023-03-26T19:58:38.836Z,32.66
2023-03-26T20:01:40.777Z,32.38
2023-03-26T20:04:43.000Z,32.40
2023-03-26T20:07:45.007Z,34.29
2023-03-26T20:10:46.957Z,33.80
2023-03-26T20:13:49.289Z,34.09
2023-03-26T20:16:51.262Z,33.17
2023-03-26T20:19:54.253Z,32.41
2023-03-26T20:22:56.174Z,33.13
2023-03-26T20:25:58.262Z,33.24
2023-03-26T20:29:00.245Z,33.21
2023-03-26T20:32:06.338Z,33.12
2023-03-26T20:35:15.158Z,33.17
2023-03-26T20:38:18.229Z,35.21
2023-03-26T20:41:22.896Z,34.92
2023-03-26T20:44:26.833Z,35.03
2023-03-26T20:47:28.758Z,35.43
2023-03-26T20:50:31.609Z,34.05
2023-03-26T20:53:33.596Z,34.55
2023-03-26T20:56:37.759Z,35.38
2023-03-26T20:59:39.804Z,34.09
2023-03-26T21:02:43.279Z,32.67
2023-03-26T21:05:48.405Z,33.28
2023-03-26T21:08:50.445Z,34.02
2023-03-26T21:11:52.361Z,34.52
2023-03-26T21:14:55.739Z,36.10
2023-03-26T21:17:58.229Z,35.48
2023-03-26T21:21:20.013Z,36.24
2023-03-26T21:24:29.706Z,35.42
2023-03-26T21:27:47.680Z,37.20
2023-03-26T21:30:51.029Z,35.53
2023-03-26T21:33:53.018Z,36.06
2023-03-26T21:36:55.014Z,38.56
2023-03-26T21:39:57.251Z,37.92
2023-03-26T21:42:59.345Z,38.15
2023-03-26T21:46:01.457Z,37.97
2023-03-26T21:49:03.673Z,41.22
2023-03-26T21:52:05.778Z,44.86
2023-03-26T21:55:09.250Z,45.17
2023-03-26T21:58:21.106Z,44.96
2023-03-26T22:01:39.091Z,46.52
2023-03-26T22:04:48.883Z,46.18
2023-03-26T22:07:50.907Z,47.47
2023-03-26T22:10:52.905Z,46.48
2023-03-26T22:13:56.804Z,46.68
2023-03-26T22:16:58.667Z,46.69
2023-03-26T22:20:01.555Z,47.52
2023-03-26T22:23:03.455Z,50.07
2023-03-26T22:26:05.943Z,50.11
2023-03-26T22:29:08.230Z,49.14
2023-03-26T22:32:10.247Z,48.14
2023-03-26T22:35:12.919Z,49.65
2023-03-26T22:38:16.967Z,47.98
2023-03-26T22:41:18.854Z,49.26
2023-03-26T22:44:20.827Z,49.26
2023-03-26T22:47:22.860Z,48.29
2023-03-26T22:50:24.773Z,52.07
2023-03-26T22:53:26.654Z,50.99
2023-03-26T22:56:28.577Z,56.10
2023-03-26T22:59:30.435Z,51.93
2023-03-26T23:02:32.328Z,53.76
2023-03-26T23:05:34.721Z,54.58
2023-03-26T23:08:38.087Z,57.28
2023-03-26T23:11:40.082Z,60.20
2023-03-26T23:14:41.914Z,57.02
2023-03-26T23:17:43.741Z,58.07
2023-03-26T23:20:52.748Z,58.59
2023-03-26T23:23:54.644Z,53.47
2023-03-26T23:26:56.559Z,55.01
2023-03-26T23:29:58.586Z,59.28
2023-03-26T23:33:01.722Z,58.17
2023-03-26T23:36:08.816Z,56.40
2023-03-26T23:39:10.931Z,54.27
2023-03-26T23:42:12.820Z,57.00
2023-03-26T23:45:14.794Z,59.25
2023-03-26T23:48:17.517Z,60.39
2023-03-26T23:51:22.447Z,60.87
2023-03-26T23:54:25.678Z,62.67
2023-03-26T23:57:27.574Z,64.03
